Time;durP1;ratioP1;P1;durP2;ratioP2;P2;SDS_P1;SDS_P2;PMS_P1;PMS_P2;Temp;Humidity;BMP_temperature;BMP_pressure;BME280_temperature;BME280_humidity;BME280_pressure;Samples;Min_cycle;Max_cycle;Signal;HPM_P1;HPM_P2
2021/12/14 00:00:09;;;;;;;24.63;11.15;;;;;;;1.82;60.65;100917.75;4385942;32;32688;-93
2021/12/14 00:03:02;;;;;;;18.45;9.00;;;;;;;1.82;60.41;100912.53;4394722;32;33969;-93
2021/12/14 00:05:44;;;;;;;22.92;9.57;;;;;;;1.90;60.33;100913.47;4376639;32;32859;-93
2021/12/14 00:08:47;;;;;;;20.05;8.65;;;;;;;1.78;60.63;100920.31;4355753;32;33297;-93
2021/12/14 00:11:52;;;;;;;16.15;8.20;;;;;;;1.43;61.92;100913.88;4355100;32;33647;-93
2021/12/14 00:15:03;;;;;;;15.13;7.68;;;;;;;1.19;63.42;100915.34;4376529;32;32032;-92
2021/12/14 00:17:53;;;;;;;20.08;8.27;;;;;;;1.20;63.17;100914.47;4381300;32;32961;-91
2021/12/14 00:20:45;;;;;;;18.00;7.78;;;;;;;1.16;63.47;100914.41;4381291;32;32804;-93
2021/12/14 00:26:46;;;;;;;18.45;8.13;;;;;;;1.32;63.49;100918.06;4395800;32;33235;-93
2021/12/14 00:29:29;;;;;;;13.07;6.80;;;;;;;1.39;63.31;100914.69;4387288;32;32947;-91
2021/12/14 00:32:26;;;;;;;15.50;7.68;;;;;;;1.59;62.42;100918.37;4366805;32;32884;-91
2021/12/14 00:35:20;;;;;;;16.33;7.85;;;;;;;1.65;62.32;100915.81;4370911;32;32689;-93
2021/12/14 00:38:14;;;;;;;21.50;8.85;;;;;;;1.62;62.13;100915.81;4386470;32;33007;-92
2021/12/14 00:41:00;;;;;;;32.35;12.37;;;;;;;2.08;60.76;100911.03;4383804;32;32945;-93
2021/12/14 00:43:51;;;;;;;32.33;11.02;;;;;;;1.65;61.90;100920.16;4377920;32;32611;-91
2021/12/14 00:46:30;;;;;;;40.22;13.90;;;;;;;1.72;61.86;100920.25;4379742;32;32928;-89
2021/12/14 00:49:09;;;;;;;25.62;10.75;;;;;;;1.42;62.61;100927.72;4359948;32;33395;-89
2021/12/14 00:51:45;;;;;;;23.67;10.00;;;;;;;1.68;61.91;100923.69;4369968;32;32700;-89
2021/12/14 00:54:37;;;;;;;22.30;9.60;;;;;;;1.70;61.91;100927.16;4405024;32;33136;-94
2021/12/14 00:57:17;;;;;;;19.65;9.40;;;;;;;1.55;62.75;100937.41;4363309;32;33810;-96
2021/12/14 00:59:59;;;;;;;21.00;7.72;;;;;;;1.65;62.08;100941.00;4350218;32;32844;-96
2021/12/14 01:02:41;;;;;;;16.73;7.25;;;;;;;1.60;61.69;100938.34;4356885;32;32374;-96
2021/12/14 01:05:29;;;;;;;21.90;8.27;;;;;;;1.62;61.22;100931.44;4347319;33;32347;-95
2021/12/14 01:08:16;;;;;;;18.70;8.48;;;;;;;1.73;61.19;100927.19;4343273;33;32863;-95
2021/12/14 01:11:13;;;;;;;18.33;7.85;;;;;;;1.65;61.36;100928.84;4378488;32;32271;-95
2021/12/14 01:14:30;;;;;;;21.55;9.57;;;;;;;1.53;61.83;100936.53;4382204;32;33100;-95
2021/12/14 01:17:27;;;;;;;23.02;9.35;;;;;;;1.88;60.48;100925.59;4361049;32;34684;-90
2021/12/14 01:20:12;;;;;;;18.98;8.05;;;;;;;1.45;61.67;100948.59;4375949;32;32627;-89
2021/12/14 01:22:59;;;;;;;14.45;7.62;;;;;;;1.30;62.42;100948.41;4369482;32;33060;-92
2021/12/14 01:25:48;;;;;;;16.58;7.12;;;;;;;1.53;61.77;100946.94;4369506;32;32908;-91
2021/12/14 01:33:06;;;;;;;13.48;6.53;;;;;;;1.72;60.90;100948.03;4387212;32;34731;-95
2021/12/14 01:36:08;;;;;;;14.23;6.25;;;;;;;1.65;60.75;100941.87;4394472;32;34207;-95
2021/12/14 01:39:22;;;;;;;17.30;7.03;;;;;;;1.64;60.79;100940.12;4452009;27;20145;-95
2021/12/14 01:42:21;;;;;;;14.38;6.68;;;;;;;1.63;61.00;100934.91;4359900;32;33913;-95
2021/12/14 01:45:21;;;;;;;18.95;8.32;;;;;;;1.59;60.87;100936.59;4322364;33;32705;-96
2021/12/14 01:48:04;;;;;;;16.25;7.95;;;;;;;1.37;61.77;100929.41;4334325;33;31990;-92
2021/12/14 01:50:53;;;;;;;19.27;7.55;;;;;;;1.30;62.02;100938.00;4350696;32;32267;-92
2021/12/14 01:53:38;;;;;;;12.95;6.95;;;;;;;1.32;62.44;100938.87;4381052;32;33147;-91
2021/12/14 01:56:26;;;;;;;14.45;7.57;;;;;;;1.36;61.81;100938.06;4406019;32;33686;-92
2021/12/14 02:03:20;;;;;;;15.23;7.62;;;;;;;1.34;61.24;100924.16;4362521;32;33948;-89
2021/12/14 02:06:03;;;;;;;13.73;7.30;;;;;;;1.40;60.50;100934.66;4365513;32;33264;-91
2021/12/14 02:08:46;;;;;;;15.75;7.97;;;;;;;0.99;61.55;100942.78;4377705;32;32285;-94
2021/12/14 02:11:34;;;;;;;20.30;7.97;;;;;;;1.23;61.17;100930.09;4373243;32;31907;-94
2021/12/14 02:14:19;;;;;;;15.00;7.05;;;;;;;1.26;61.03;100937.06;4361313;32;33561;-94
2021/12/14 02:17:03;;;;;;;21.17;8.25;;;;;;;1.05;61.30;100927.28;4367099;32;33608;-94
2021/12/14 02:19:46;;;;;;;21.42;7.85;;;;;;;1.09;61.38;100931.66;4369765;32;33236;-96
2021/12/14 02:26:50;;;;;;;15.57;7.70;;;;;;;1.30;60.62;100933.66;4367784;32;33885;-94
2021/12/14 02:29:39;;;;;;;16.15;8.07;;;;;;;0.77;61.85;100926.03;4374910;32;33136;-90
2021/12/14 02:32:24;;;;;;;12.65;7.40;;;;;;;0.60;62.54;100938.78;4364605;32;32808;-85
2021/12/14 02:35:01;;;;;;;15.32;7.28;;;;;;;0.87;62.60;100940.03;4356222;32;33903;-87
2021/12/14 02:37:51;;;;;;;12.32;7.07;;;;;;;0.57;62.94;100943.94;4355079;32;34009;-88
2021/12/14 02:40:53;;;;;;;11.68;6.37;;;;;;;0.71;62.63;100937.22;4348977;32;33405;-88
2021/12/14 02:43:34;;;;;;;15.38;7.90;;;;;;;0.87;62.71;100932.25;4345664;32;32328;-90
2021/12/14 02:46:10;;;;;;;14.80;7.25;;;;;;;0.79;63.08;100933.84;4356463;32;31976;-90
2021/12/14 02:48:43;;;;;;;17.48;8.27;;;;;;;0.88;62.73;100936.59;4354718;32;33213;-89
2021/12/14 02:51:17;;;;;;;17.73;8.73;;;;;;;0.77;62.92;100937.31;4343522;32;32691;-89
2021/12/14 02:53:48;;;;;;;23.17;10.10;;;;;;;1.00;62.13;100937.63;4354588;32;32363;-90
2021/12/14 02:56:21;;;;;;;20.00;9.37;;;;;;;0.95;62.92;100947.09;4342064;32;32652;-90
2021/12/14 02:58:56;;;;;;;20.23;9.82;;;;;;;1.11;62.84;100935.16;4357736;32;32546;-92
2021/12/14 03:01:50;;;;;;;22.73;9.35;;;;;;;1.22;62.55;100933.56;4350034;32;33594;-91
2021/12/14 03:04:31;;;;;;;21.42;7.47;;;;;;;1.12;62.76;100938.63;4360978;32;33920;-91
2021/12/14 03:07:25;;;;;;;19.83;8.77;;;;;;;1.13;62.34;100941.25;4357967;32;32691;-93
2021/12/14 03:10:19;;;;;;;17.02;8.07;;;;;;;0.96;63.12;100934.97;4401141;32;32881;-92
2021/12/14 03:13:10;;;;;;;19.58;8.60;;;;;;;1.01;62.80;100941.09;4340280;33;32769;-86
2021/12/14 03:15:47;;;;;;;21.95;8.45;;;;;;;0.84;63.32;100932.19;4330016;33;32819;-86
2021/12/14 03:18:27;;;;;;;18.12;8.82;;;;;;;0.61;64.29;100930.12;4340805;32;32766;-90
2021/12/14 03:21:14;;;;;;;17.53;9.40;;;;;;;0.67;64.15;100925.03;4327738;33;32473;-89
2021/12/14 03:24:10;;;;;;;19.30;9.05;;;;;;;1.00;63.31;100931.56;4358469;32;34436;-89
2021/12/14 03:26:54;;;;;;;17.98;9.23;;;;;;;1.23;62.57;100932.69;4348751;32;33743;-91
2021/12/14 03:29:26;;;;;;;23.62;10.38;;;;;;;1.18;62.46;100934.38;4336833;32;32084;-90
2021/12/14 03:31:57;;;;;;;18.75;9.13;;;;;;;1.03;62.51;100928.97;4348304;32;32786;-90
2021/12/14 03:34:32;;;;;;;20.27;9.40;;;;;;;0.67;63.22;100919.84;4361708;32;33698;-91
2021/12/14 03:37:15;;;;;;;21.62;10.05;;;;;;;0.53;63.53;100926.56;4361834;32;32390;-91
2021/12/14 03:39:48;;;;;;;15.50;7.70;;;;;;;0.54;64.16;100927.44;4336649;32;31941;-90
2021/12/14 03:42:34;;;;;;;21.37;9.35;;;;;;;0.94;62.98;100923.66;4360979;32;32578;-89
2021/12/14 03:45:12;;;;;;;20.73;10.52;;;;;;;1.00;62.90;100913.34;4361828;32;34529;-93
2021/12/14 03:48:07;;;;;;;20.65;9.85;;;;;;;1.09;62.75;100918.66;4350568;32;34446;-93
2021/12/14 03:50:49;;;;;;;15.20;8.25;;;;;;;1.08;62.99;100916.03;4365474;32;32165;-93
2021/12/14 03:53:33;;;;;;;18.52;8.25;;;;;;;0.97;63.48;100914.19;4381907;32;33863;-91
2021/12/14 03:56:25;;;;;;;22.20;8.73;;;;;;;1.18;62.71;100913.56;4343830;32;34955;-93
2021/12/14 03:59:19;;;;;;;17.37;9.60;;;;;;;1.10;62.93;100914.34;4352964;32;35223;-93
2021/12/14 04:02:05;;;;;;;18.80;8.30;;;;;;;0.90;63.98;100916.66;4366543;32;32752;-94
2021/12/14 04:05:05;;;;;;;17.70;8.68;;;;;;;1.07;63.65;100916.91;4348563;32;32984;-95
2021/12/14 04:07:45;;;;;;;13.90;8.23;;;;;;;1.01;63.53;100915.09;4377818;32;32840;-95
2021/12/14 04:10:40;;;;;;;19.37;8.95;;;;;;;1.01;63.27;100920.28;4384797;32;33611;-95
2021/12/14 04:13:44;;;;;;;15.93;8.45;;;;;;;1.18;62.97;100923.97;4388194;32;35001;-96
2021/12/14 04:16:42;;;;;;;20.75;7.90;;;;;;;1.15;62.60;100913.53;4433341;32;32584;-94
2021/12/14 04:19:35;;;;;;;18.20;9.13;;;;;;;1.25;62.38;100920.59;4378079;32;33386;-91
2021/12/14 04:22:37;;;;;;;18.48;8.60;;;;;;;1.26;61.94;100918.87;4348243;32;32309;-91
2021/12/14 04:25:20;;;;;;;14.52;8.30;;;;;;;0.95;62.73;100922.78;4390135;32;32277;-90
2021/12/14 04:27:51;;;;;;;16.42;8.35;;;;;;;1.02;62.40;100916.84;4379449;32;33598;-90
2021/12/14 04:30:40;;;;;;;21.12;8.75;;;;;;;1.03;61.99;100914.25;4392729;32;33603;-90
2021/12/14 04:33:12;;;;;;;17.00;8.30;;;;;;;1.01;61.80;100918.56;4391448;32;33039;-90
2021/12/14 04:35:43;;;;;;;16.55;7.70;;;;;;;1.14;61.48;100921.31;4377872;32;33081;-89
2021/12/14 04:38:21;;;;;;;17.37;8.90;;;;;;;0.89;61.97;100923.59;4378427;32;33383;-90
2021/12/14 04:52:18;;;;;;;15.00;7.90;;;;;;;0.86;62.20;100914.91;4393379;32;33182;-90
2021/12/14 04:54:52;;;;;;;21.37;9.45;;;;;;;0.69;62.19;100919.84;4391198;32;32658;-89
2021/12/14 04:57:29;;;;;;;;;;;;;;;0.64;61.61;100919.78;4366522;32;32939;-90
2021/12/14 05:00:19;;;;;;;18.02;8.15;;;;;;;0.70;61.21;100919.88;4391341;32;32667;-90
2021/12/14 05:02:53;;;;;;;21.15;8.60;;;;;;;0.84;60.87;100916.59;4391173;32;33430;-91
2021/12/14 05:05:51;;;;;;;21.60;10.43;;;;;;;0.79;60.80;100924.31;4393288;32;33063;-90
2021/12/14 05:10:56;;;;;;;17.83;9.15;;;;;;;0.48;61.55;100929.09;4387091;32;33811;-90
2021/12/14 05:14:02;;;;;;;17.90;9.30;;;;;;;0.46;62.26;100935.09;4403016;32;33026;-90
2021/12/14 05:16:32;;;;;;;16.85;7.95;;;;;;;0.23;62.52;100929.53;4387418;32;32642;-89
2021/12/14 05:19:24;;;;;;;16.20;8.85;;;;;;;0.27;63.12;100933.94;4392747;32;32102;-90
2021/12/14 05:22:34;;;;;;;18.02;8.50;;;;;;;0.57;62.01;100932.66;4382361;32;33148;-90
2021/12/14 05:25:14;;;;;;;19.85;8.38;;;;;;;0.70;61.28;100939.78;4377915;32;32700;-90
2021/12/14 05:27:47;;;;;;;16.83;8.57;;;;;;;0.60;61.23;100946.56;4378209;32;33241;-90
2021/12/14 05:30:32;;;;;;;16.15;8.35;;;;;;;0.73;60.98;100943.31;4379219;32;32411;-90
2021/12/14 05:33:41;;;;;;;19.35;8.57;;;;;;;0.85;60.18;100942.59;4352009;32;32643;-88
2021/12/14 05:36:14;;;;;;;19.12;8.77;;;;;;;0.60;60.39;100943.09;4345352;32;32956;-87
2021/12/14 05:44:44;;;;;;;16.55;9.90;;;;;;;0.38;61.42;100947.09;4345592;33;33030;-92
2021/12/14 05:47:27;;;;;;;19.35;9.73;;;;;;;0.26;61.96;100939.97;4349150;32;33109;-92
2021/12/14 05:50:14;;;;;;;19.25;10.15;;;;;;;0.24;62.27;100954.69;4348802;32;32943;-93
2021/12/14 05:53:06;;;;;;;19.12;9.60;;;;;;;0.22;62.38;100951.16;4374243;32;33536;-88
2021/12/14 05:55:38;;;;;;;17.92;8.95;;;;;;;0.30;62.51;100954.78;4376562;32;34084;-93
2021/12/14 05:58:30;;;;;;;21.30;10.75;;;;;;;0.51;61.52;100969.81;4374112;32;33129;-91
2021/12/14 06:01:15;;;;;;;19.95;9.63;;;;;;;0.06;62.54;100959.56;4387698;32;33714;-90
2021/12/14 06:04:09;;;;;;;20.62;10.15;;;;;;;0.41;61.60;100957.53;4380578;32;34232;-93
2021/12/14 06:06:54;;;;;;;20.75;9.73;;;;;;;0.19;61.87;100961.50;4354535;32;32492;-91
2021/12/14 06:09:41;;;;;;;18.98;9.95;;;;;;;0.39;61.05;100954.06;4353903;32;34986;-91
2021/12/14 06:12:28;;;;;;;23.52;10.73;;;;;;;0.35;61.05;100954.84;4344076;32;33838;-91
2021/12/14 06:15:17;;;;;;;19.62;10.90;;;;;;;0.41;60.94;100953.22;4374864;32;31788;-92
2021/12/14 06:17:59;;;;;;;23.95;11.10;;;;;;;0.29;61.49;100957.34;4399680;32;32702;-91
2021/12/14 06:20:59;;;;;;;22.52;11.52;;;;;;;0.36;61.25;100960.06;4368791;32;34521;-90
2021/12/14 06:23:41;;;;;;;24.73;12.10;;;;;;;0.23;61.62;100963.31;4333622;33;32369;-90
2021/12/14 06:26:40;;;;;;;24.48;12.95;;;;;;;0.41;61.06;100973.13;4365842;32;32190;-91
2021/12/14 06:29:37;;;;;;;23.35;10.90;;;;;;;0.52;60.73;100966.38;4346997;32;33167;-91
2021/12/14 06:32:32;;;;;;;20.02;9.98;;;;;;;0.71;59.70;100968.44;4348475;32;32304;-91
2021/12/14 06:35:41;;;;;;;19.00;10.52;;;;;;;0.49;59.99;100966.34;4349954;32;32424;-91
2021/12/14 06:38:34;;;;;;;24.15;11.73;;;;;;;0.29;60.50;100972.94;4374979;32;32585;-91
2021/12/14 06:41:25;;;;;;;18.30;10.77;;;;;;;0.38;60.21;100962.69;4350977;32;32540;-89
2021/12/14 06:44:04;;;;;;;20.88;10.75;;;;;;;0.28;60.47;100971.16;4375573;32;33408;-90
2021/12/14 06:46:58;;;;;;;22.35;9.93;;;;;;;0.09;60.59;100980.38;4360358;32;32404;-91
2021/12/14 06:50:07;;;;;;;25.25;11.77;;;;;;;-0.10;61.99;100976.56;4391404;32;32694;-89
2021/12/14 06:53:08;;;;;;;26.60;13.57;;;;;;;0.13;61.33;100972.66;4396554;32;33143;-91
2021/12/14 06:56:12;;;;;;;27.50;12.30;;;;;;;-0.01;62.11;100974.12;4374793;32;33213;-90
2021/12/14 06:59:09;;;;;;;24.27;12.45;;;;;;;0.05;61.21;100989.84;4377788;32;33006;-89
2021/12/14 07:02:08;;;;;;;27.10;13.10;;;;;;;0.16;61.03;100977.91;4364399;32;33680;-90
2021/12/14 07:05:22;;;;;;;22.25;11.52;;;;;;;0.18;61.25;100980.53;4353677;32;32243;-91
2021/12/14 07:08:24;;;;;;;24.95;12.57;;;;;;;0.28;61.05;100986.75;4360551;32;34668;-91
2021/12/14 07:11:22;;;;;;;23.85;12.63;;;;;;;-0.14;61.72;101004.22;4374140;32;32852;-91
2021/12/14 07:14:03;;;;;;;24.50;10.63;;;;;;;0.32;61.29;100994.62;4350501;32;32528;-92
2021/12/14 07:16:57;;;;;;;25.20;11.90;;;;;;;0.32;61.20;100993.75;4367564;32;33075;-89
2021/12/14 07:19:54;;;;;;;22.13;11.98;;;;;;;0.16;61.27;100997.81;4343826;32;32472;-91
2021/12/14 07:22:52;;;;;;;25.83;11.73;;;;;;;0.47;60.58;100994.88;4369370;32;32852;-91
2021/12/14 07:25:37;;;;;;;18.37;10.57;;;;;;;0.42;60.77;101006.06;4364167;32;32663;-90
2021/12/14 07:28:44;;;;;;;30.48;13.68;;;;;;;0.50;60.63;101004.47;4365585;32;32773;-89
2021/12/14 07:31:26;;;;;;;30.05;13.52;;;;;;;0.43;61.00;101008.69;4372932;32;32906;-90
2021/12/14 07:33:57;;;;;;;27.55;14.35;;;;;;;0.66;60.87;101002.97;4370855;32;32192;-90
2021/12/14 07:36:33;;;;;;;31.25;14.57;;;;;;;0.43;62.09;101003.50;4394137;32;33312;-90
2021/12/14 07:39:18;;;;;;;29.90;14.07;;;;;;;0.65;61.86;101006.44;4400393;32;33201;-89
2021/12/14 07:41:54;;;;;;;23.38;13.50;;;;;;;0.86;61.49;101000.72;4373820;32;33367;-89
2021/12/14 07:44:34;;;;;;;32.08;16.92;;;;;;;0.64;62.07;101002.97;4396488;32;32678;-89
2021/12/14 07:47:19;;;;;;;29.25;12.90;;;;;;;0.65;63.04;100999.50;4384261;32;32717;-88
2021/12/14 07:49:56;;;;;;;24.10;12.20;;;;;;;0.82;62.79;100991.97;4381343;32;34181;-88
2021/12/14 07:52:33;;;;;;;26.60;14.57;;;;;;;0.95;62.90;100993.00;4395034;32;33533;-87
2021/12/14 07:55:10;;;;;;;29.35;13.00;;;;;;;1.26;62.22;100990.00;4380190;32;33336;-88
2021/12/14 07:57:39;;;;;;;26.90;13.88;;;;;;;1.25;62.82;100993.44;4384675;32;32484;-88
2021/12/14 08:00:25;;;;;;;25.48;13.50;;;;;;;1.34;62.71;100997.03;4359828;32;34017;-88
2021/12/14 08:03:01;;;;;;;23.42;11.98;;;;;;;1.43;62.73;100997.16;4396328;32;33963;-88
2021/12/14 08:05:33;;;;;;;30.85;14.07;;;;;;;1.57;62.59;100997.28;4368226;32;33085;-88
2021/12/14 08:08:10;;;;;;;26.42;15.52;;;;;;;1.86;62.18;100989.84;4393247;32;32743;-88
2021/12/14 08:10:46;;;;;;;30.55;15.18;;;;;;;2.13;61.94;100991.84;4394588;32;32957;-88
2021/12/14 08:13:23;;;;;;;28.62;15.65;;;;;;;1.88;63.05;100995.94;4397551;32;36066;-88
2021/12/14 08:15:59;;;;;;;28.15;15.77;;;;;;;1.87;63.22;100994.19;4371864;32;33212;-88
2021/12/14 08:18:33;;;;;;;36.50;16.23;;;;;;;1.91;63.38;100996.84;4369946;32;32366;-88
2021/12/14 08:21:09;;;;;;;55.42;22.13;;;;;;;2.10;63.11;100999.66;4372676;32;32766;-87
2021/12/14 08:24:06;;;;;;;54.35;23.62;;;;;;;2.15;63.10;100996.22;4396967;32;34027;-88
2021/12/14 08:26:36;;;;;;;43.22;22.23;;;;;;;2.51;62.29;100984.34;4376035;32;34023;-88
2021/12/14 08:29:19;;;;;;;48.53;20.08;;;;;;;2.51;62.39;100984.34;4390432;32;32248;-88
2021/12/14 08:31:55;;;;;;;43.50;17.52;;;;;;;2.60;62.41;100978.34;4387462;32;33277;-88
2021/12/14 08:34:28;;;;;;;43.22;19.42;;;;;;;2.52;62.78;100980.91;4368995;32;33180;-88
2021/12/14 08:37:21;;;;;;;51.65;19.87;;;;;;;2.68;62.48;100984.50;4375348;32;32277;-88
2021/12/14 08:40:12;;;;;;;45.28;18.17;;;;;;;2.79;62.50;100990.66;4380129;32;32543;-88
2021/12/14 08:43:11;;;;;;;40.65;18.75;;;;;;;3.03;62.30;100977.75;4367951;32;32519;-88
2021/12/14 08:45:46;;;;;;;36.72;17.42;;;;;;;3.10;62.33;100986.50;4371175;32;32850;-88
2021/12/14 08:48:22;;;;;;;37.17;17.87;;;;;;;3.21;62.30;100981.34;4387743;32;33470;-88
2021/12/14 08:51:00;;;;;;;35.28;15.95;;;;;;;3.40;61.89;100990.13;4381288;32;34116;-89
2021/12/14 08:53:32;;;;;;;37.10;16.42;;;;;;;3.54;61.62;100989.31;4368420;32;33412;-89
2021/12/14 08:56:03;;;;;;;34.83;15.27;;;;;;;3.84;60.78;100985.94;4368809;32;32880;-89
2021/12/14 08:58:32;;;;;;;32.00;15.32;;;;;;;4.11;59.91;100984.25;4381276;32;32518;-90
2021/12/14 09:01:06;;;;;;;30.15;15.88;;;;;;;3.74;60.28;100984.16;4382843;32;32719;-90
2021/12/14 09:03:40;;;;;;;35.55;15.90;;;;;;;3.94;60.43;100978.12;4356903;32;32962;-89
2021/12/14 09:06:13;;;;;;;31.35;15.32;;;;;;;4.17;59.40;100981.66;4381878;32;33625;-90
2021/12/14 09:08:43;;;;;;;30.90;15.07;;;;;;;4.28;59.31;100979.06;4368149;32;32433;-90
2021/12/14 09:11:14;;;;;;;23.70;13.57;;;;;;;4.71;58.32;100979.94;4378435;32;32648;-90
2021/12/14 09:13:44;;;;;;;28.67;14.38;;;;;;;4.60;58.88;100972.09;4369900;32;34021;-90
2021/12/14 09:16:15;;;;;;;25.77;14.07;;;;;;;5.09;56.49;100971.16;4380591;32;33843;-90
2021/12/14 09:18:55;;;;;;;29.05;14.85;;;;;;;5.10;56.77;100971.12;4381371;32;32893;-90
2021/12/14 09:21:27;;;;;;;28.92;14.90;;;;;;;4.94;57.30;100972.06;4379854;32;32646;-90
2021/12/14 09:23:59;;;;;;;22.98;13.38;;;;;;;5.22;56.89;100971.97;4382523;32;33118;-92
2021/12/14 09:26:35;;;;;;;31.17;13.23;;;;;;;5.45;56.65;100966.66;4372259;32;32629;-92
2021/12/14 09:29:27;;;;;;;29.90;14.48;;;;;;;5.48;56.00;100969.25;4390273;32;33800;-92
2021/12/14 09:32:21;;;;;;;28.42;14.25;;;;;;;5.50;56.13;100978.84;4360569;32;33875;-92
2021/12/14 09:34:50;;;;;;;26.25;13.82;;;;;;;5.69;56.12;100971.75;4372279;32;32578;-92
2021/12/14 09:37:32;;;;;;;27.90;14.30;;;;;;;5.59;56.55;100973.56;4358181;32;32505;-91
2021/12/14 09:40:31;;;;;;;31.80;15.88;;;;;;;5.56;56.85;100977.97;4375158;32;34344;-91
2021/12/14 09:43:12;;;;;;;32.92;15.60;;;;;;;5.73;57.73;100965.63;4343211;32;33260;-90
2021/12/14 09:46:16;;;;;;;36.63;15.27;;;;;;;6.04;56.80;100961.12;4350197;32;33111;-93
2021/12/14 09:49:09;;;;;;;34.40;15.75;;;;;;;6.09;56.47;100953.22;4391585;32;32430;-92
2021/12/14 09:52:08;;;;;;;30.05;16.20;;;;;;;6.73;54.91;100952.69;4392824;32;32805;-92
2021/12/14 09:54:40;;;;;;;35.30;16.40;;;;;;;6.72;55.26;100950.94;4388855;32;33847;-90
2021/12/14 09:57:31;;;;;;;29.77;14.82;;;;;;;6.90;55.21;100944.66;4364789;32;34702;-90
2021/12/14 10:00:30;;;;;;;25.98;15.05;;;;;;;7.31;52.89;100938.94;4369858;32;32874;-91
2021/12/14 10:03:38;;;;;;;34.38;14.60;;;;;;;7.64;51.23;100931.50;4359461;32;32994;-90
2021/12/14 10:06:11;;;;;;;29.85;14.35;;;;;;;6.96;52.64;100933.22;4348365;32;32719;-89
2021/12/14 10:08:44;;;;;;;25.80;13.25;;;;;;;7.34;51.92;100928.37;4349047;32;34212;-88
2021/12/14 10:11:27;;;;;;;22.92;13.45;;;;;;;7.34;52.36;100931.00;4347769;32;33328;-90
2021/12/14 10:14:13;;;;;;;25.75;14.02;;;;;;;7.64;51.12;100923.59;4347835;32;33124;-90
2021/12/14 10:16:41;;;;;;;27.02;14.85;;;;;;;7.34;51.79;100925.75;4361952;32;31661;-90
2021/12/14 10:19:16;;;;;;;25.05;13.50;;;;;;;7.52;51.13;100918.53;4359404;32;31445;-90
2021/12/14 10:21:55;;;;;;;27.60;13.98;;;;;;;7.32;51.67;100914.41;4337785;32;33418;-90
2021/12/14 10:24:23;;;;;;;26.30;13.07;;;;;;;7.74;50.90;100914.72;4349460;32;33465;-90
2021/12/14 10:26:57;;;;;;;31.33;15.45;;;;;;;7.33;53.66;100908.25;4349948;32;33961;-90
2021/12/14 10:29:28;;;;;;;27.40;14.90;;;;;;;7.75;52.34;100908.56;4349568;32;32652;-90
2021/12/14 10:32:13;;;;;;;29.17;14.93;;;;;;;7.68;51.34;100915.66;4338677;32;34749;-90
2021/12/14 10:34:46;;;;;;;26.65;12.68;;;;;;;8.08;50.22;100911.59;4346333;32;32769;-90
2021/12/14 10:37:23;;;;;;;22.17;13.00;;;;;;;8.00;51.07;100906.44;4348844;32;31785;-90
2021/12/14 10:43:35;;;;;;;30.45;15.25;;;;;;;8.61;50.32;100912.47;4360971;32;34307;-90
2021/12/14 10:46:26;;;;;;;26.62;14.13;;;;;;;8.64;50.44;100910.66;4346317;32;32800;-90
2021/12/14 10:49:00;;;;;;;25.67;13.18;;;;;;;8.50;51.44;100906.50;4334541;32;32832;-90
2021/12/14 10:51:32;;;;;;;27.87;16.33;;;;;;;9.14;47.42;100900.91;4347903;32;32693;-90
2021/12/14 10:54:12;;;;;;;122.28;41.65;;;;;;;8.72;50.68;100910.50;4360734;32;33296;-89
2021/12/14 10:57:04;;;;;;;30.02;17.67;;;;;;;8.40;52.57;100906.69;4335790;32;33059;-90
2021/12/14 11:00:30;;;;;;;34.60;16.45;;;;;;;8.81;49.92;100896.31;4353505;32;32687;-90
2021/12/14 11:03:10;;;;;;;27.52;14.55;;;;;;;9.32;48.23;100898.81;4359765;32;34025;-91
2021/12/14 11:05:45;;;;;;;24.40;14.02;;;;;;;9.96;44.35;100895.59;4343004;32;32570;-91
2021/12/14 11:08:33;;;;;;;27.42;14.75;;;;;;;9.81;44.83;100895.94;4367416;32;33143;-90
2021/12/14 11:11:53;;;;;;;30.02;15.07;;;;;;;9.59;46.30;100900.84;4353560;32;32523;-91
2021/12/14 11:14:25;;;;;;;30.75;15.40;;;;;;;9.23;46.93;100889.31;4353282;32;33057;-90
2021/12/14 11:20:17;;;;;;;25.20;14.48;;;;;;;10.00;45.62;100884.06;4363067;32;33133;-92
2021/12/14 11:22:50;;;;;;;25.08;13.38;;;;;;;9.99;45.35;100877.03;4362316;32;32717;-91
2021/12/14 11:26:04;;;;;;;28.77;14.50;;;;;;;9.85;45.25;100876.50;4362363;32;34415;-91
2021/12/14 11:28:43;;;;;;;24.35;13.20;;;;;;;9.59;46.05;100887.69;4355531;32;32879;-90
2021/12/14 11:31:41;;;;;;;22.92;13.43;;;;;;;9.37;46.41;100892.53;4367366;32;34183;-90
2021/12/14 11:34:31;;;;;;;;;;;;;;;9.00;47.54;100897.69;4367702;32;32535;-90
2021/12/14 11:37:23;;;;;;;27.70;13.38;;;;;;;8.93;47.59;100896.09;4367955;32;32726;-90
2021/12/14 11:39:56;;;;;;;24.17;13.45;;;;;;;8.70;48.55;100892.13;4353917;32;32507;-90
2021/12/14 11:42:44;;;;;;;26.80;13.20;;;;;;;8.67;48.80;100888.66;4353263;32;32454;-90
2021/12/14 11:45:31;;;;;;;23.85;13.70;;;;;;;8.52;49.04;100891.59;4367297;32;32254;-92
2021/12/14 11:48:01;;;;;;;31.23;14.82;;;;;;;8.40;49.24;100880.38;4368059;32;33356;-92
2021/12/14 11:50:37;;;;;;;28.70;14.05;;;;;;;8.29;49.84;100882.28;4372955;32;33845;-92
2021/12/14 11:53:21;;;;;;;25.92;12.32;;;;;;;8.19;50.02;100888.59;4375929;32;32917;-92
2021/12/14 11:56:25;;;;;;;27.93;14.47;;;;;;;8.15;50.30;100879.00;4356213;32;32601;-93
2021/12/14 11:59:10;;;;;;;24.25;13.80;;;;;;;8.18;50.22;100885.09;4382630;32;32956;-92
2021/12/14 12:02:17;;;;;;;24.48;13.10;;;;;;;8.21;50.14;100877.16;4351369;32;33272;-92
2021/12/14 12:05:30;;;;;;;28.85;13.80;;;;;;;8.07;49.74;100879.16;4345582;32;32764;-92
2021/12/14 12:11:06;;;;;;;25.05;13.20;;;;;;;8.06;51.18;100879.16;4375640;32;34553;-92
2021/12/14 12:13:46;;;;;;;23.70;13.57;;;;;;;7.84;52.56;100876.88;4348005;32;32853;-90
2021/12/14 12:16:37;;;;;;;26.08;13.73;;;;;;;7.38;51.99;100880.16;4365373;32;32064;-91
2021/12/14 12:19:14;;;;;;;27.60;14.18;;;;;;;8.08;50.50;100877.37;4366061;32;32719;-91
2021/12/14 12:22:18;;;;;;;27.55;14.35;;;;;;;8.44;49.30;100870.66;4341161;32;33726;-92
2021/12/14 12:24:50;;;;;;;24.45;13.52;;;;;;;8.04;50.68;100879.19;4344923;32;33758;-92
2021/12/14 12:27:54;;;;;;;28.17;13.13;;;;;;;7.90;51.63;100879.41;4352357;32;33273;-92
2021/12/14 12:30:48;;;;;;;28.48;12.98;;;;;;;7.98;52.18;100881.06;4350384;32;32888;-93
2021/12/14 12:33:54;;;;;;;29.27;14.30;;;;;;;7.94;50.85;100875.84;4361485;32;32735;-93
2021/12/14 12:36:34;;;;;;;27.75;14.13;;;;;;;8.36;50.38;100873.44;4352439;32;32980;-92
2021/12/14 12:39:08;;;;;;;24.02;13.80;;;;;;;7.90;50.96;100866.25;4368818;32;32846;-92
2021/12/14 12:41:59;;;;;;;26.20;12.32;;;;;;;8.44;50.06;100870.66;4352042;32;33396;-92
2021/12/14 12:44:46;;;;;;;24.87;13.13;;;;;;;8.92;49.01;100863.56;4363484;32;33543;-92
2021/12/14 12:47:22;;;;;;;24.42;12.88;;;;;;;9.17;47.61;100863.97;4374407;32;33875;-92
2021/12/14 12:50:09;;;;;;;31.23;14.73;;;;;;;8.97;48.35;100871.37;4356779;32;34447;-92
2021/12/14 12:52:57;;;;;;;25.73;14.15;;;;;;;8.87;48.39;100868.06;4368512;32;31961;-92
2021/12/14 12:55:34;;;;;;;26.30;15.25;;;;;;;8.71;48.48;100875.41;4358527;32;33676;-92
2021/12/14 12:58:24;;;;;;;24.55;13.70;;;;;;;8.35;49.23;100870.78;4366612;32;34050;-91
2021/12/14 13:01:33;;;;;;;32.72;16.92;;;;;;;8.40;49.18;100861.97;4335871;32;32639;-93
2021/12/14 13:04:37;;;;;;;30.40;14.55;;;;;;;8.05;50.55;100859.88;4348672;32;32401;-90
2021/12/14 13:07:48;;;;;;;27.65;14.32;;;;;;;8.19;50.24;100860.53;4353502;32;32656;-93
2021/12/14 13:10:47;;;;;;;30.52;16.55;;;;;;;8.18;49.99;100858.78;4347643;32;32725;-93
2021/12/14 13:14:01;;;;;;;65.62;32.10;;;;;;;7.82;51.00;100865.50;4391406;32;33687;-93
2021/12/14 13:16:51;;;;;;;271.98;120.03;;;;;;;7.77;50.91;100872.59;4373025;32;32078;-93
2021/12/14 13:20:00;;;;;;;178.57;84.07;;;;;;;7.89;50.60;100876.81;4354467;32;32576;-92
2021/12/14 13:22:48;;;;;;;132.85;61.75;;;;;;;7.63;51.03;100877.19;4341864;32;20103;-91
2021/12/14 13:25:33;;;;;;;112.75;52.20;;;;;;;7.87;50.22;100876.81;4339094;32;32651;-92
2021/12/14 13:28:37;;;;;;;78.05;41.92;;;;;;;7.86;50.14;100871.59;4342855;32;32848;-87
2021/12/14 13:31:05;;;;;;;52.42;27.83;;;;;;;7.77;50.27;100871.72;4344745;32;32717;-90
2021/12/14 13:33:37;;;;;;;41.58;19.98;;;;;;;8.01;49.50;100875.75;4344779;32;33646;-87